createdAt,value
2022-08-05T00:00:16.088Z,18.9
2022-08-05T00:10:15.842Z,18.9
2022-08-05T00:20:20.283Z,18.8
2022-08-05T00:30:17.165Z,18.7
2022-08-05T00:40:27.678Z,18.6
2022-08-05T00:50:18.485Z,18.4
2022-08-05T01:00:19.965Z,18.4
2022-08-05T01:10:19.675Z,18.1
2022-08-05T01:30:20.631Z,18
2022-08-05T01:40:21.212Z,17.9
2022-08-05T01:50:28.494Z,17.7
2022-08-05T02:00:30.213Z,17.5
2022-08-05T02:10:26.770Z,17.5
2022-08-05T02:20:23.821Z,17.5
2022-08-05T02:30:24.327Z,17.5
2022-08-05T02:40:24.791Z,17.5
2022-08-05T02:50:26.092Z,17.4
2022-08-05T03:00:26.937Z,17.4
2022-08-05T03:10:26.677Z,17.5
2022-08-05T03:20:27.284Z,17.4
2022-08-05T03:30:30.190Z,17.4
2022-08-05T03:40:31.570Z,17.3
2022-08-05T03:50:28.165Z,17.1
2022-08-05T04:00:28.813Z,17.1
2022-08-05T04:10:31.043Z,17.1
2022-08-05T04:20:29.321Z,17.1
2022-08-05T04:30:30.260Z,17.1
2022-08-05T04:40:30.849Z,16.9
2022-08-05T04:50:34.283Z,16.8
2022-08-05T05:00:32.456Z,16.8
2022-08-05T05:10:33.733Z,16.7
2022-08-05T05:20:33.821Z,16.9
2022-08-05T05:30:34.580Z,16.9
2022-08-05T05:40:35.221Z,17
2022-08-05T05:50:40.975Z,16.9
2022-08-05T06:00:36.906Z,16.9
2022-08-05T06:10:49.065Z,17
2022-08-05T06:30:39.311Z,16.9
2022-08-05T06:40:42.008Z,16.9
2022-08-05T06:50:40.496Z,16.9
2022-08-05T07:00:41.097Z,16.8
2022-08-05T07:20:41.284Z,16.8
2022-08-05T07:30:41.624Z,16.6
2022-08-05T07:40:44.452Z,16.5
2022-08-05T07:50:42.499Z,16.6
2022-08-05T08:00:43.168Z,16.6
2022-08-05T08:10:43.763Z,16.6
2022-08-05T08:21:00.721Z,16.5
2022-08-05T08:30:47.312Z,16.5
2022-08-05T08:50:52.907Z,16.6
2022-08-05T09:00:46.352Z,16.5
2022-08-05T09:20:46.957Z,16.5
2022-08-05T09:30:47.837Z,16.6
2022-08-05T09:40:52.774Z,16.7
2022-08-05T09:50:48.888Z,16.8
2022-08-05T10:00:49.504Z,16.9
2022-08-05T10:32:49.930Z,18
2022-08-05T10:40:57.928Z,18.4
2022-08-05T11:00:54.923Z,19.1
2022-08-05T11:11:00.377Z,19.5
2022-08-05T11:20:55.107Z,19.6
2022-08-05T11:30:55.272Z,19.9
2022-08-05T11:40:58.722Z,20.4
2022-08-05T11:50:55.566Z,20.5
2022-08-05T12:00:55.857Z,20.7
2022-08-05T12:10:56.502Z,20.3
2022-08-05T12:20:57.504Z,20.4
2022-08-05T12:30:58.240Z,20.4
2022-08-05T12:40:58.338Z,20.5
2022-08-05T12:50:59.301Z,21.8
2022-08-05T13:01:58.917Z,22.1
2022-08-05T13:11:00.657Z,21.4
2022-08-05T13:21:01.475Z,20.9
2022-08-05T13:31:03.253Z,20.9
2022-08-05T13:41:02.698Z,21.4
2022-08-05T13:51:02.675Z,21.7
2022-08-05T14:01:03.116Z,21.7
2022-08-05T14:11:20.086Z,22.5
2022-08-05T14:21:24.040Z,23.4
2022-08-05T14:31:05.600Z,23.8
2022-08-05T14:41:07.341Z,22.7
2022-08-05T14:51:06.174Z,22.9
2022-08-05T15:01:07.079Z,22.8
2022-08-05T15:11:07.626Z,23.1
2022-08-05T15:21:08.510Z,23.6
2022-08-05T15:31:09.088Z,23.6
2022-08-05T15:41:20.242Z,23.4
2022-08-05T16:01:16.819Z,22.3
2022-08-05T16:11:11.385Z,22.3
2022-08-05T16:21:11.497Z,22.2
2022-08-05T16:31:12.286Z,21.8
2022-08-05T16:41:29.786Z,21.6
2022-08-05T16:51:12.798Z,21.5
2022-08-05T17:01:13.554Z,21.3
2022-08-05T17:11:16.768Z,21.2
2022-08-05T17:21:14.745Z,21
2022-08-05T17:31:24.290Z,20.9
2022-08-05T17:41:22.864Z,20.7
2022-08-05T17:42:17.223Z,20.7
2022-08-05T17:51:22.057Z,20.4
2022-08-05T18:01:22.056Z,20.3
2022-08-05T18:11:23.537Z,20.1
2022-08-05T18:21:25.876Z,19.9
2022-08-05T18:41:54.583Z,19.4
2022-08-05T18:52:03.620Z,19.1
2022-08-05T19:01:33.547Z,18.9
2022-08-05T19:11:28.145Z,18.6
2022-08-05T19:21:27.341Z,18.3
2022-08-05T19:41:34.932Z,17.7
2022-08-05T19:51:59.768Z,17.5
2022-08-05T20:11:28.765Z,17.1
2022-08-05T20:21:29.196Z,16.9
2022-08-05T20:31:37.728Z,16.7
2022-08-05T20:51:31.920Z,16.3
2022-08-05T21:01:37.642Z,16.2
2022-08-05T21:12:06.654Z,16.1
2022-08-05T21:21:38.913Z,16
2022-08-05T21:31:41.004Z,15.8
2022-08-05T21:41:35.394Z,15.6
2022-08-05T21:52:17.051Z,15.4
2022-08-05T22:11:36.836Z,15.1
2022-08-05T22:21:37.397Z,14.9
2022-08-05T22:31:44.281Z,14.5
2022-08-05T22:42:05.815Z,14.2
2022-08-05T23:01:51.133Z,13.8
2022-08-05T23:11:40.665Z,13.6
2022-08-05T23:21:42.404Z,13.4
2022-08-05T23:31:41.171Z,13.2
2022-08-05T23:41:48.362Z,12.9
2022-08-05T23:51:41.503Z,12.7
